Flight Briefing for CPX226

Departure Arrival
Los Angeles International Airport (KLAX)
Click to view FAA NOTAMS
Daniel K Inouye International Airport (PHNL)
Click to view FAA NOTAMS
Departure Time Arrival Time
0130 UTC 0730 UTC
Aircraft Distance
B767-300BDSF 2267nm
Departure METAR Arrival METAR
KLAX 252353Z 25013KT 10SM CLR 17/09 A3007 RMK AO2 SLP182 T01720094 10200 20172 58012 PHNL 252353Z 07012G18KT 10SM SCT028 BKN046 BKN075 27/18 A3006 RMK AO2 RAB22E32 SLP179 P0000 60000 T02720178 10278 20228 58015
Suggested Route
SUMMR1 DINTY DUETS R576 DENNS MAGGI3


View recent IFR Routes data
Notes



Charts and Procedures

Charts for KLAX
No chart available
Charts for PHNL
No chart available

Windy.com Weather Map